x

Buoy B01 - Western Maine Shelf (44030) Wave Buoy

10:04am - Sun 3rd May 2015 All times are EDT. -4 hours from GMT.

  • Sig Wave height 3.0ft
  • Peak Period 8s
  • Wind
    4mph
  • Sea Temp 47°f
  • Air Temp 47°f
  • Sea Pressure 1016.6mb
  • Buoy B01 - Western Maine Shelf
  • Buoy B01 - Western Maine Shelf

More Historic Weather Station data

Upgrade to MSW Pro to gain access to the past 30 days of data for over 8000 Wavebouys and Weather Stations around the globe.

Join Pro

Comparision Forecast

View Surf forecast
   
Sun 05/03 10:04am 3ft 8s 4
mph
1016.6mb 47f 47f
9:04am 2.5ft 8s 2
mph
1016.7mb 46f 47f
8:04am 2.5ft 8s 9
mph
1016.2mb 46f 46f
7:04am 2.5ft 8s 7 9 mph 1015.8mb 46f 46f
6:04am 3ft 8s 4 7 mph 1015.3mb 46f 46f
5:04am 2.5ft 11s 9 11 mph 1014.8mb 46f 46f
4:04am 3ft 11s 9 11 mph 1014.5mb 46f 45f
3:04am 3ft 11s 9
mph
1014.6mb 46f 42f
2:04am 3ft 8s 4 7 mph 1014.8mb 46f 44f
1:04am 3ft 11s 4 7 mph 1014.9mb 46f 44f
12:04am 2.5ft 8s 7
mph
1014.8mb 46f 44f
Sat 05/02 11:04pm 3ft 8s 9 11 mph 1014.8mb 46f 44f
10:04pm 3ft 8s 11 13 mph 1014.9mb 45f 44f
9:04pm 3ft 8s 11
mph
1014.6mb 45f 43f
8:04pm 3ft 8s 11 13 mph 1013.8mb 44f 43f
7:04pm 3.5ft 8s 11 13 mph 1013.4mb 44f 42f
6:04pm 3ft 8s 13 16 mph 1013.2mb 44f 42f
5:04pm 2.5ft 8s 13 16 mph 1013.3mb 44f 42f
4:04pm 1.6ft 3s 13 16 mph 1013.6mb 44f 41f
3:04pm 2.5ft 6s 13 16 mph 1013.9mb 44f 40f
2:04pm 2.5ft 6s 13 16 mph 1014.2mb 45f 40f
1:04pm 2.5ft 6s 11 13 mph 1014.4mb 45f 40f
12:04pm 2.5ft 8s 7 9 mph 1014.7mb 44f 39f
11:04am 2.5ft 6s 7 9 mph 1015.2mb 44f 39f
10:04am 2.5ft 6s 4 7 mph 1015.6mb 44f 39f
9:04am 2.5ft 8s 4 7 mph 1015.6mb 43f 39f
8:04am 2.5ft 6s 2
mph
1015.5mb 43f 39f
7:04am 2.5ft 8s 2 4 mph 1015.3mb 43f 39f
6:04am 2.5ft 11s 2
mph
1015.1mb 43f 39f
5:04am 2.5ft 11s 2 4 mph 1014.7mb 44f 40f
4:04am 2.5ft 8s 2 4 mph 1014.5mb 44f 40f
3:04am 1.6ft 5s 2 4 mph 1014.6mb 45f 41f
2:04am 2ft 5s 7 11 mph 1014.8mb 45f 41f
1:04am 2ft 6s 9 13 mph 1014.8mb 45f 41f
12:04am 2.5ft 6s 9 11 mph 1014.6mb 45f 42f
Fri 05/01 11:04pm 2.5ft 5s 9 11 mph 1014.5mb 45f 42f
10:04pm 2.5ft 6s 7 9 mph 1014.5mb 45f 42f
9:04pm 2.5ft 8s 7
mph
1014.5mb 45f 43f
8:04pm 2.5ft 6s 7 9 mph 1014.2mb 45f 42f
7:04pm 3ft 6s 9 11 mph 1014.1mb 45f 42f
6:04pm 3ft 6s 11
mph
1014.2mb 45f 42f
5:04pm 3ft 6s 11 13 mph 1014.3mb 45f 42f
4:04pm 3.5ft 6s 11 13 mph 1014.4mb 45f 42f
3:04pm 3.5ft 5s 11 13 mph 1014.5mb 46f 42f
2:04pm 3ft 6s 9 11 mph 1014.7mb 45f 42f
1:04pm 3.5ft 6s 11
mph
1014.9mb 45f 42f
12:04pm 4.5ft 6s 11
mph
1014.9mb 45f 42f
11:04am 3.5ft 6s 13 16 mph 1015.1mb 45f 42f
10:04am 3.5ft 6s 13 16 mph 1015.1mb 45f 42f
9:04am 3.5ft 8s 11 13 mph 1015.1mb 45f 43f
8:04am 3ft 8s 9 13 mph 1014.8mb 46f 43f
7:04am 3.5ft 8s 4
mph
1014.5mb 47f 45f
6:04am 3ft 8s 4
mph
1014.1mb 46f 44f
5:04am 3ft 8s 4
mph
1013.7mb 46f 44f
4:04am 2.5ft 8s 4
mph
1013.7mb 46f 44f
3:04am 2.5ft 6s 4
mph
1013.8mb 45f 44f
2:04am 2.5ft 8s 4 7 mph 1013.8mb 45f 45f
1:04am 2.5ft 8s 2 4 mph 1014mb 45f 44f
12:04am 2.5ft 11s 2
mph
1014mb 45f 44f
Thu 04/30 11:04pm 3ft 11s 2 4 mph 1013.8mb 45f 44f
10:04pm 3ft 11s 2 4 mph 1013.7mb 45f 44f
9:04pm 2.5ft 11s  -  2 mph 1012.9mb 45f 44f
8:04pm 2.5ft 8s 4
mph
1012.1mb 45f 44f
6:04pm 3ft 8s 11 13 mph 1011mb 45f 46f
5:04pm 3.5ft 11s 7 9 mph 1010.5mb 46f 47f
4:04pm 3.5ft 11s 4
mph
1009.7mb 44f 48f
3:04pm 2.5ft 11s 4 7 mph 1009.6mb 45f 48f
2:04pm 3ft 11s 4 7 mph 1009.6mb 47f 48f
1:04pm 2.5ft 11s 4 7 mph 1009.5mb 46f 48f
12:04pm 2.5ft 11s 4
mph
1009.5mb 45f 49f
11:04am 2.5ft 11s 2 4 mph 1009.6mb 43f 48f
10:04am 3.5ft 11s 2 4 mph 1009.4mb 44f 46f
9:04am 2ft 11s 4
mph
1009.4mb 43f 44f
8:04am 2.5ft 11s 7
mph
1009.3mb 43f 44f
7:04am 2ft 11s 2 4 mph 1008.9mb 43f 45f
6:04am 2ft 8s 7
mph
1008.6mb 43f 43f
5:04am 2ft 11s 9
mph
1008.1mb 43f 43f
4:04am 2.5ft 11s 11 13 mph 1008mb 43f 44f
3:04am 2ft 11s 7 9 mph 1008mb 44f 45f
2:04am 2ft 11s 4 7 mph 1007.9mb 44f 44f
1:04am 2ft 6s 2 4 mph 1007.9mb 43f 44f
12:04am 2.5ft 11s 7 9 mph 1007.7mb 44f 44f
Wed 04/29 11:04pm 2.5ft 6s 2 4 mph 1007.3mb 43f 44f
10:04pm 2.5ft 11s 2
mph
1007.1mb 44f 45f
9:04pm 2ft 11s 2 4 mph 1006.9mb 44f 45f
8:04pm 2ft 11s 7 9 mph 1006.3mb 45f 45f
7:04pm 2.5ft 8s 9 11 mph 1005.8mb 44f 45f
6:04pm 2.5ft 11s 7 9 mph 1005.4mb 45f 45f
5:04pm 2.5ft 11s 7
mph
1004.9mb 45f 45f